Time;durP1;ratioP1;P1;durP2;ratioP2;P2;SDS_P1;SDS_P2;PMS_P1;PMS_P2;Temp;Humidity;BMP_temperature;BMP_pressure;BME280_temperature;BME280_humidity;BME280_pressure;Samples;Min_cycle;Max_cycle;Signal;HPM_P1;HPM_P2
2022/08/03 00:01:07;;;;;;;5.13;2.13;;;;;;;26.29;50.83;100370.38;2104445;28;20480;-76
2022/08/03 00:02:29;;;;;;;4.35;1.88;;;;;;;26.29;50.55;100373.94;2102846;28;20035;-76
2022/08/03 00:03:51;;;;;;;3.15;1.92;;;;;;;26.31;50.59;100382.00;2100081;28;20036;-76
2022/08/03 00:05:13;;;;;;;5.25;2.10;;;;;;;26.29;50.87;100376.66;2102636;28;20047;-77
2022/08/03 00:06:36;;;;;;;4.05;1.95;;;;;;;26.29;50.72;100376.66;2103037;28;20472;-77
2022/08/03 00:07:58;;;;;;;6.53;2.55;;;;;;;26.30;51.05;100378.41;2102906;28;20078;-76
2022/08/03 00:09:20;;;;;;;4.47;2.20;;;;;;;26.31;50.85;100379.28;2102579;28;20066;-77
2022/08/03 00:10:41;;;;;;;4.75;2.17;;;;;;;26.31;50.84;100365.75;2108725;28;20135;-77
2022/08/03 00:12:05;;;;;;;3.05;1.65;;;;;;;26.31;50.99;100377.44;2105377;28;20159;-77
2022/08/03 00:13:28;;;;;;;3.15;2.13;;;;;;;26.31;51.04;100374.75;2110926;28;20067;-76
2022/08/03 00:14:49;;;;;;;4.30;1.90;;;;;;;26.30;50.79;100367.56;2104395;28;20507;-77
2022/08/03 00:16:13;;;;;;;6.53;2.15;;;;;;;26.29;51.04;100375.78;2103076;28;20068;-76
2022/08/03 00:17:34;;;;;;;5.80;2.95;;;;;;;26.28;51.12;100376.72;2110806;28;20051;-76
2022/08/03 00:18:57;;;;;;;2.03;1.50;;;;;;;26.27;50.97;100370.44;2105581;28;20707;-77
2022/08/03 00:20:18;;;;;;;3.88;2.08;;;;;;;26.27;51.07;100369.56;2105530;28;20047;-76
2022/08/03 00:21:41;;;;;;;3.33;1.58;;;;;;;26.28;51.25;100374.03;2101247;28;20063;-77
2022/08/03 00:23:04;;;;;;;5.60;2.13;;;;;;;26.29;51.25;100373.94;2102769;28;20078;-76
2022/08/03 00:24:26;;;;;;;6.82;2.03;;;;;;;26.28;51.26;100372.19;2103103;28;20052;-75
2022/08/03 00:25:49;;;;;;;3.50;2.05;;;;;;;26.29;51.07;100373.94;2100503;28;20093;-77
2022/08/03 00:27:10;;;;;;;7.40;2.17;;;;;;;26.30;50.97;100377.53;2106503;28;20051;-77
2022/08/03 00:28:32;;;;;;;6.63;2.15;;;;;;;26.30;51.05;100378.41;2089029;28;20041;-77
2022/08/03 00:29:54;;;;;;;6.20;2.03;;;;;;;26.31;51.07;100369.34;2091661;28;20049;-76
2022/08/03 00:31:18;;;;;;;4.18;2.00;;;;;;;26.32;51.22;100376.47;2099865;28;20040;-76
2022/08/03 00:32:39;;;;;;;7.95;2.45;;;;;;;26.31;51.31;100371.16;2102637;28;20179;-76
2022/08/03 00:34:02;;;;;;;3.13;1.75;;;;;;;26.30;51.06;100375.69;2093836;28;20396;-77
2022/08/03 00:35:23;;;;;;;7.88;2.60;;;;;;;26.30;51.06;100373.00;2100195;28;20126;-77
2022/08/03 00:36:46;;;;;;;7.55;1.95;;;;;;;26.30;51.27;100372.13;2105441;28;20059;-76
2022/08/03 00:38:09;;;;;;;3.60;1.83;;;;;;;26.31;51.05;100365.75;2105119;28;20139;-77
2022/08/03 00:39:30;;;;;;;4.80;2.35;;;;;;;26.31;51.28;100368.47;2104508;28;20044;-77
2022/08/03 00:40:52;;;;;;;5.93;2.55;;;;;;;26.29;51.42;100378.47;2110715;28;20042;-77
2022/08/03 00:42:14;;;;;;;8.32;3.08;;;;;;;26.26;51.48;100367.81;2111776;28;20055;-76
2022/08/03 00:43:36;;;;;;;5.03;1.92;;;;;;;26.27;51.60;100375.84;2097005;28;20064;-77
2022/08/03 00:44:58;;;;;;;6.25;2.28;;;;;;;26.27;51.69;100370.44;2099693;28;20044;-77
2022/08/03 00:46:22;;;;;;;6.53;2.83;;;;;;;26.27;51.40;100372.28;2102111;28;20081;-77
2022/08/03 00:47:43;;;;;;;4.85;2.10;;;;;;;26.27;51.73;100370.44;2102549;28;20084;-77
2022/08/03 00:49:06;;;;;;;9.02;2.35;;;;;;;26.27;51.54;100367.72;2094184;28;20048;-77
2022/08/03 00:50:30;;;;;;;4.13;2.22;;;;;;;26.29;51.71;100362.25;2099997;28;20074;-77
2022/08/03 00:51:52;;;;;;;4.57;2.50;;;;;;;26.28;51.51;100374.03;2105269;28;20051;-77
2022/08/03 00:53:14;;;;;;;8.00;2.00;;;;;;;26.29;51.76;100373.06;2104599;28;20508;-77
2022/08/03 00:54:37;;;;;;;5.15;1.88;;;;;;;26.27;51.76;100374.97;2097433;28;20060;-76
2022/08/03 00:56:00;;;;;;;4.93;2.40;;;;;;;26.28;51.82;100368.59;2105923;28;20051;-76
2022/08/03 00:57:21;;;;;;;4.30;2.10;;;;;;;26.29;51.65;100362.25;2104142;28;20092;-77
2022/08/03 00:58:45;;;;;;;7.30;2.10;;;;;;;26.30;51.75;100364.00;2102535;28;20047;-76
2022/08/03 01:00:10;;;;;;;6.15;2.10;;;;;;;26.31;51.83;100366.63;2095958;28;20127;-76
2022/08/03 01:01:33;;;;;;;3.60;1.95;;;;;;;26.31;51.57;100365.75;2108220;28;20404;-77
2022/08/03 01:02:56;;;;;;;4.07;1.85;;;;;;;26.29;51.92;100367.66;2104864;28;20048;-76
2022/08/03 01:04:17;;;;;;;8.38;2.30;;;;;;;26.28;52.05;100371.31;2102602;28;20044;-77
2022/08/03 01:05:46;;;;;;;3.38;2.17;;;;;;;26.29;51.94;100359.53;2102195;28;20056;-76
2022/08/03 01:07:18;;;;;;;5.85;2.50;;;;;;;26.25;52.00;100366.97;2086608;28;20049;-77
2022/08/03 01:08:47;;;;;;;5.78;1.90;;;;;;;26.26;52.12;100367.81;2102580;28;20071;-76
2022/08/03 01:10:16;;;;;;;4.72;2.20;;;;;;;26.25;52.15;100363.38;2104738;28;20076;-76
2022/08/03 01:11:48;;;;;;;4.47;2.30;;;;;;;26.25;52.20;100360.69;2103614;28;20950;-76
2022/08/03 01:13:20;;;;;;;5.03;2.30;;;;;;;26.23;52.46;100363.44;2095575;28;20508;-77
2022/08/03 01:14:51;;;;;;;6.60;1.98;;;;;;;26.23;52.38;100367.97;2101909;28;20063;-77
2022/08/03 01:16:19;;;;;;;9.30;2.50;;;;;;;26.24;52.56;100364.31;2103136;28;20448;-76
2022/08/03 01:17:49;;;;;;;4.93;2.17;;;;;;;26.22;52.73;100361.69;2093752;28;20468;-76
2022/08/03 01:19:31;;;;;;;4.70;2.05;;;;;;;26.20;52.88;100358.16;2101529;28;20105;-77
2022/08/03 01:20:58;;;;;;;4.22;2.65;;;;;;;26.18;52.72;100352.88;2105018;28;20086;-76
2022/08/03 01:23:04;;;;;;;3.65;2.10;;;;;;;26.17;52.96;100361.94;2094173;28;20040;-77
2022/08/03 01:24:40;;;;;;;4.93;2.00;;;;;;;26.16;52.93;100354.78;2090237;28;20091;-76
2022/08/03 01:26:31;;;;;;;5.50;2.78;;;;;;;26.15;53.16;100361.13;2100198;28;20548;-76
2022/08/03 01:28:03;;;;;;;4.57;2.55;;;;;;;26.14;53.33;100350.38;2109124;28;20147;-76
2022/08/03 01:29:46;;;;;;;9.02;2.40;;;;;;;26.14;53.51;100348.56;2104903;28;20835;-76
2022/08/03 01:31:12;;;;;;;7.18;2.50;;;;;;;26.14;53.54;100348.56;2096468;28;20060;-75
2022/08/03 01:32:46;;;;;;;5.75;2.30;;;;;;;26.14;53.47;100351.28;2100789;28;20055;-76
2022/08/03 01:34:12;;;;;;;6.13;2.60;;;;;;;26.13;53.46;100354.94;2107714;28;20074;-76
2022/08/03 01:35:39;;;;;;;5.53;2.50;;;;;;;26.12;53.63;100355.88;2102685;28;20121;-76
2022/08/03 01:37:05;;;;;;;3.42;1.92;;;;;;;26.12;53.69;100352.34;2094240;28;20052;-75
2022/08/03 01:38:32;;;;;;;4.78;2.17;;;;;;;26.12;53.82;100345.06;2100688;28;20059;-76
2022/08/03 01:39:58;;;;;;;4.70;1.85;;;;;;;26.13;53.85;100354.94;2102893;28;20377;-77
2022/08/03 01:41:32;;;;;;;5.38;2.38;;;;;;;26.12;53.51;100361.28;2102787;28;20048;-77
2022/08/03 01:42:54;;;;;;;4.57;2.10;;;;;;;26.10;53.86;100357.81;2095892;28;20108;-76
2022/08/03 01:44:18;;;;;;;6.68;2.40;;;;;;;26.07;53.95;100347.16;2108194;28;20138;-77
2022/08/03 01:45:44;;;;;;;6.15;2.28;;;;;;;26.07;53.72;100363.38;2098562;28;20130;-76
2022/08/03 01:47:06;;;;;;;6.97;2.17;;;;;;;26.06;54.13;100364.34;2111063;28;20052;-76
2022/08/03 01:48:30;;;;;;;9.15;2.42;;;;;;;26.06;54.06;100358.94;2110634;28;20415;-77
2022/08/03 01:49:53;;;;;;;6.97;2.15;;;;;;;26.04;53.99;100360.88;2100992;28;20044;-76
2022/08/03 01:51:18;;;;;;;6.03;2.30;;;;;;;26.02;54.22;100356.47;2104653;28;20046;-77
2022/08/03 01:52:44;;;;;;;8.63;2.58;;;;;;;26.02;54.01;100368.19;2102427;28;20040;-76
2022/08/03 01:54:07;;;;;;;8.50;2.35;;;;;;;25.99;54.16;100362.06;2096078;28;20131;-76
2022/08/03 01:55:33;;;;;;;6.68;2.30;;;;;;;25.99;54.41;100360.22;2099622;28;20052;-76
2022/08/03 01:56:58;;;;;;;8.13;2.45;;;;;;;25.99;54.27;100362.91;2104574;28;20040;-76
2022/08/03 01:58:22;;;;;;;5.68;2.13;;;;;;;25.99;54.51;100359.38;2094215;28;20053;-76
2022/08/03 01:59:47;;;;;;;6.65;2.42;;;;;;;25.98;54.60;100355.78;2099307;28;20143;-76
2022/08/03 02:01:13;;;;;;;4.95;2.10;;;;;;;25.98;54.64;100360.31;2101356;28;20507;-77
2022/08/03 02:02:37;;;;;;;5.65;2.13;;;;;;;25.96;54.60;100355.00;2094085;28;20142;-77
2022/08/03 02:03:59;;;;;;;5.93;2.15;;;;;;;25.97;54.52;100353.16;2099872;28;20051;-77
2022/08/03 02:05:22;;;;;;;4.60;2.20;;;;;;;25.94;54.49;100351.47;2096664;28;20118;-76
2022/08/03 02:06:46;;;;;;;6.22;2.28;;;;;;;25.95;54.75;100352.38;2098685;28;20146;-76
2022/08/03 02:08:11;;;;;;;7.53;2.25;;;;;;;25.94;54.57;100358.72;2098601;28;20084;-76
2022/08/03 02:09:37;;;;;;;4.13;2.10;;;;;;;25.94;54.71;100356.03;2093860;28;20041;-76
2022/08/03 02:11:00;;;;;;;6.88;2.20;;;;;;;25.91;54.90;100357.06;2100166;28;20056;-76
2022/08/03 02:12:24;;;;;;;5.38;2.22;;;;;;;25.91;55.08;100357.06;2104168;28;20048;-76
2022/08/03 02:13:49;;;;;;;8.60;2.63;;;;;;;25.93;54.80;100359.72;2097067;28;20131;-76
2022/08/03 02:15:13;;;;;;;6.07;2.33;;;;;;;25.94;55.02;100365.00;2098012;28;20056;-77
2022/08/03 02:16:36;;;;;;;4.93;2.25;;;;;;;25.94;54.91;100356.03;2103790;28;20036;-76
2022/08/03 02:18:00;;;;;;;5.32;2.58;;;;;;;25.93;55.06;100365.97;2103396;28;20055;-76
2022/08/03 02:19:24;;;;;;;5.60;2.67;;;;;;;25.94;54.96;100359.59;2112280;28;20113;-77
2022/08/03 02:20:47;;;;;;;7.25;2.80;;;;;;;25.94;55.17;100356.03;2097169;28;20050;-76
2022/08/03 02:22:13;;;;;;;4.57;1.98;;;;;;;25.93;54.98;100357.84;2101314;28;20150;-76
2022/08/03 02:23:35;;;;;;;4.40;1.77;;;;;;;25.90;55.19;100358.03;2104284;28;20048;-77
2022/08/03 02:24:56;;;;;;;5.35;2.47;;;;;;;25.92;55.13;100352.53;2102501;28;20515;-77
2022/08/03 02:26:22;;;;;;;5.35;2.15;;;;;;;25.92;55.20;100369.66;2103295;28;20052;-76
2022/08/03 02:27:51;;;;;;;5.95;2.40;;;;;;;25.91;55.13;100362.50;2098733;28;20068;-76
2022/08/03 02:29:17;;;;;;;7.43;2.88;;;;;;;25.91;55.31;100362.50;2104638;28;20408;-77
2022/08/03 02:30:43;;;;;;;6.18;1.88;;;;;;;25.90;55.12;100354.44;2106170;28;20422;-76
2022/08/03 02:32:09;;;;;;;9.20;2.30;;;;;;;25.89;55.09;100361.69;2104250;28;20044;-77
2022/08/03 02:33:36;;;;;;;6.00;2.72;;;;;;;25.87;55.29;100360.88;2095714;28;20044;-77
2022/08/03 02:35:00;;;;;;;5.95;2.03;;;;;;;25.84;55.46;100355.66;2104074;28;20076;-77
2022/08/03 02:36:27;;;;;;;2.72;2.08;;;;;;;25.84;55.20;100357.47;2098049;28;20135;-77
2022/08/03 02:37:53;;;;;;;8.20;2.38;;;;;;;25.84;55.42;100360.19;2099883;28;20040;-77
2022/08/03 02:39:19;;;;;;;4.30;1.98;;;;;;;25.82;55.76;100351.28;2105913;28;20032;-76
2022/08/03 02:40:44;;;;;;;3.75;2.10;;;;;;;25.81;55.82;100355.81;2107132;28;20051;-77
2022/08/03 02:42:09;;;;;;;3.55;2.40;;;;;;;25.79;55.70;100350.50;2103927;28;20138;-77
2022/08/03 02:43:35;;;;;;;4.15;1.98;;;;;;;25.79;55.93;100358.63;2115206;27;20702;-75
2022/08/03 02:45:01;;;;;;;2.88;2.15;;;;;;;25.79;55.93;100365.84;2105533;28;20051;-77
2022/08/03 02:46:27;;;;;;;7.25;2.40;;;;;;;25.79;55.76;100360.44;2103715;28;20054;-77
2022/08/03 02:47:55;;;;;;;5.13;2.05;;;;;;;25.79;55.77;100364.03;2103910;28;20155;-76
2022/08/03 02:49:19;;;;;;;8.00;2.50;;;;;;;25.79;55.75;100363.16;2096048;28;20053;-77
2022/08/03 02:50:43;;;;;;;4.40;2.10;;;;;;;25.79;55.69;100361.31;2100863;28;20142;-77
2022/08/03 02:52:11;;;;;;;4.70;1.98;;;;;;;25.80;55.94;100364.88;2096516;28;20453;-76
2022/08/03 02:53:34;;;;;;;8.75;3.30;;;;;;;25.79;55.74;100364.03;2095742;28;20033;-76
2022/08/03 02:54:59;;;;;;;7.82;2.40;;;;;;;25.79;55.84;100365.84;2099776;28;20441;-76
2022/08/03 02:56:22;;;;;;;7.70;2.60;;;;;;;25.79;55.81;100358.63;2089706;28;20491;-76
2022/08/03 02:57:45;;;;;;;4.35;2.25;;;;;;;25.80;55.81;100362.16;2118110;27;20062;-77
2022/08/03 02:59:09;;;;;;;5.28;2.08;;;;;;;25.80;55.53;100354.94;2103725;28;20044;-76
2022/08/03 03:00:33;;;;;;;5.95;2.38;;;;;;;25.80;55.78;100360.34;2103395;28;20427;-78
2022/08/03 03:01:54;;;;;;;5.70;2.35;;;;;;;25.80;55.56;100365.75;2104069;28;20139;-77
2022/08/03 03:03:19;;;;;;;7.93;2.40;;;;;;;25.80;55.68;100367.59;2103426;28;20044;-77
2022/08/03 03:04:42;;;;;;;9.40;2.47;;;;;;;25.77;55.65;100368.63;2112017;28;20146;-76
2022/08/03 03:06:05;;;;;;;5.60;2.50;;;;;;;25.77;55.79;100373.16;2105675;28;20052;-77
2022/08/03 03:07:27;;;;;;;8.52;2.40;;;;;;;25.75;56.05;100367.84;2106010;28;20446;-76
2022/08/03 03:08:49;;;;;;;5.68;2.33;;;;;;;25.73;55.89;100364.31;2104496;28;20044;-76
2022/08/03 03:10:12;;;;;;;9.43;2.53;;;;;;;25.73;55.81;100364.31;2103081;28;20051;-77
2022/08/03 03:11:38;;;;;;;4.22;2.40;;;;;;;25.73;56.13;100364.31;2103681;28;20036;-77
2022/08/03 03:13:03;;;;;;;5.47;2.55;;;;;;;25.74;55.87;100366.09;2095409;28;20040;-77
2022/08/03 03:14:26;;;;;;;6.05;3.03;;;;;;;25.73;56.17;100375.16;2101227;28;20052;-76
2022/08/03 03:15:51;;;;;;;4.22;2.03;;;;;;;25.75;56.21;100373.25;2098979;28;20043;-77
2022/08/03 03:17:16;;;;;;;4.35;2.22;;;;;;;25.75;56.19;100373.25;2103427;28;20047;-77
2022/08/03 03:18:40;;;;;;;7.35;2.20;;;;;;;25.75;56.09;100375.06;2095208;28;20032;-77
2022/08/03 03:20:05;;;;;;;7.47;2.50;;;;;;;25.73;56.31;100377.84;2095459;28;20044;-76
2022/08/03 03:21:28;;;;;;;5.80;2.58;;;;;;;25.74;56.24;100376.03;2093818;28;20078;-77
2022/08/03 03:22:52;;;;;;;5.90;2.03;;;;;;;25.74;56.50;100379.59;2103664;28;20051;-77
2022/08/03 03:24:15;;;;;;;4.88;2.25;;;;;;;25.75;56.52;100372.38;2103571;28;20530;-76
2022/08/03 03:25:38;;;;;;;4.78;2.00;;;;;;;25.77;56.37;100370.47;2108700;28;20044;-77
2022/08/03 03:27:00;;;;;;;6.05;2.58;;;;;;;25.77;56.11;100363.22;2109043;28;20085;-76
2022/08/03 03:28:23;;;;;;;7.45;2.00;;;;;;;25.78;56.10;100369.50;2092891;28;20061;-77
2022/08/03 03:29:46;;;;;;;4.78;2.53;;;;;;;25.79;56.28;100374.84;2100949;28;20957;-77
2022/08/03 03:31:08;;;;;;;8.27;3.15;;;;;;;25.79;55.94;100361.31;2103156;28;20135;-77
2022/08/03 03:32:32;;;;;;;6.40;2.20;;;;;;;25.79;55.96;100364.03;2103419;28;20109;-77
2022/08/03 03:33:57;;;;;;;6.28;2.72;;;;;;;25.80;56.05;100376.56;2102893;28;20119;-77
2022/08/03 03:35:20;;;;;;;6.90;2.25;;;;;;;25.80;55.92;100363.03;2105230;28;20048;-77
2022/08/03 03:36:42;;;;;;;5.38;2.67;;;;;;;25.83;56.19;100367.44;2103489;28;20056;-77
2022/08/03 03:38:04;;;;;;;6.00;2.17;;;;;;;25.83;56.17;100364.72;2105434;28;20101;-77
2022/08/03 03:39:27;;;;;;;5.28;2.40;;;;;;;25.85;55.99;100370.94;2101801;28;20044;-77
2022/08/03 03:40:48;;;;;;;6.10;2.45;;;;;;;25.87;55.79;100377.13;2103306;28;20077;-77
2022/08/03 03:42:11;;;;;;;8.98;2.00;;;;;;;25.92;55.83;100383.19;2102749;28;20058;-77
2022/08/03 03:43:34;;;;;;;6.70;2.53;;;;;;;25.96;55.66;100373.06;2089335;28;20069;-77
2022/08/03 03:44:56;;;;;;;5.82;1.90;;;;;;;26.00;55.70;100380.91;2103138;28;20420;-77
2022/08/03 03:46:19;;;;;;;7.00;2.38;;;;;;;26.05;55.83;100369.84;2105482;28;20127;-77
2022/08/03 03:47:40;;;;;;;8.85;2.80;;;;;;;26.10;55.54;100375.88;2097390;28;20037;-77
2022/08/03 03:49:06;;;;;;;4.72;2.08;;;;;;;26.18;55.79;100382.63;2089374;28;20107;-77
2022/08/03 03:50:29;;;;;;;5.38;2.22;;;;;;;26.24;55.38;100381.44;2101030;28;20788;-77
2022/08/03 03:51:53;;;;;;;5.18;1.98;;;;;;;26.30;55.51;100375.69;2097251;28;20435;-77
2022/08/03 03:53:16;;;;;;;4.03;1.95;;;;;;;26.36;55.61;100379.91;2109540;28;20047;-77
2022/08/03 03:54:42;;;;;;;7.00;2.30;;;;;;;26.42;55.48;100382.25;2105581;28;20577;-77
2022/08/03 03:56:05;;;;;;;7.82;2.67;;;;;;;26.46;55.33;100383.81;2103179;28;20676;-78
2022/08/03 03:57:27;;;;;;;2.70;1.80;;;;;;;26.53;55.36;100379.81;2105783;28;20047;-77
2022/08/03 03:58:49;;;;;;;;;;;;;;;26.59;55.28;100379.47;2102424;28;20189;-77
2022/08/03 04:00:11;;;;;;;6.25;2.00;;;;;;;26.65;54.89;100387.22;2096573;28;20003;-76
2022/08/03 04:01:34;;;;;;;3.65;1.75;;;;;;;26.71;54.72;100384.22;2094417;28;20686;-77
2022/08/03 04:02:56;;;;;;;4.63;2.08;;;;;;;26.80;54.69;100380.06;2091853;28;20664;-77
2022/08/03 04:11:23;;;;;;;3.75;1.90;;;;;;;27.31;53.83;100392.44;2105287;28;20056;-77
2022/08/03 04:12:46;;;;;;;6.88;1.98;;;;;;;27.40;53.53;100386.47;2095313;28;20085;-76
2022/08/03 04:14:13;;;;;;;4.32;1.77;;;;;;;27.51;53.34;100389.41;2102562;28;20043;-77
2022/08/03 04:15:36;;;;;;;5.25;1.95;;;;;;;27.61;53.17;100387.06;2103424;28;20040;-77
2022/08/03 04:17:02;;;;;;;3.97;2.15;;;;;;;27.69;52.88;100382.91;2100562;28;20440;-77
2022/08/03 04:18:27;;;;;;;4.20;1.75;;;;;;;27.80;52.62;100397.66;2094338;28;20249;-76
2022/08/03 04:19:53;;;;;;;3.88;2.25;;;;;;;27.90;52.57;100390.69;2102962;28;20056;-76
2022/08/03 04:21:18;;;;;;;2.45;1.75;;;;;;;27.99;52.28;100384.69;2111819;28;20063;-76
2022/08/03 04:22:41;;;;;;;2.97;1.58;;;;;;;28.08;51.84;100384.13;2097239;28;20057;-76
2022/08/03 04:24:07;;;;;;;6.40;1.90;;;;;;;28.18;51.82;100384.44;2098394;28;20119;-77
2022/08/03 04:25:32;;;;;;;4.40;1.90;;;;;;;28.25;51.38;100397.53;2105268;28;20056;-77
2022/08/03 04:26:56;;;;;;;5.53;1.85;;;;;;;28.35;51.13;100392.41;2106976;28;20143;-76
2022/08/03 04:28:19;;;;;;;4.65;1.98;;;;;;;28.43;50.96;100390.91;2104662;28;20047;-76
2022/08/03 04:29:47;;;;;;;6.15;1.90;;;;;;;28.54;50.89;100385.69;2103025;28;20048;-77
2022/08/03 04:31:09;;;;;;;5.85;1.80;;;;;;;28.66;50.72;100386.72;2111591;28;20047;-77
2022/08/03 04:32:31;;;;;;;;;;;;;;;28.73;50.34;100388.06;2105845;28;20040;-76
2022/08/03 04:33:53;;;;;;;;;;;;;;;28.80;50.10;100394.88;2102958;28;20014;-77
2022/08/03 04:35:18;;;;;;;3.13;1.52;;;;;;;28.92;50.22;100379.59;2102744;28;19966;-77
2022/08/03 04:36:48;;;;;;;3.25;1.55;;;;;;;29.08;49.95;100388.47;2095988;28;20099;-76
2022/08/03 04:38:14;;;;;;;4.15;1.48;;;;;;;29.23;49.39;100394.72;2101856;28;20044;-76
2022/08/03 04:39:39;;;;;;;4.38;1.70;;;;;;;29.31;49.27;100387.78;2102909;28;20059;-76
2022/08/03 04:41:01;;;;;;;6.95;2.13;;;;;;;29.43;49.16;100385.22;2094657;28;20474;-77
2022/08/03 04:42:23;;;;;;;;;;;;;;;29.51;48.73;100397.34;2092185;28;20056;-76
2022/08/03 04:43:45;;;;;;;;;;;;;;;29.64;48.56;100391.94;2100258;28;20012;-77
2022/08/03 04:45:10;;;;;;;6.25;1.90;;;;;;;29.79;48.29;100392.72;2111469;27;19935;-77
2022/08/03 04:46:38;;;;;;;6.68;1.58;;;;;;;29.94;48.20;100386.19;2110951;28;20440;-76
2022/08/03 04:48:01;;;;;;;4.95;1.90;;;;;;;30.07;47.34;100389.78;2095057;28;20085;-77
2022/08/03 04:49:25;;;;;;;3.30;1.67;;;;;;;30.18;47.25;100389.91;2099951;28;20114;-77
2022/08/03 04:50:48;;;;;;;7.05;1.83;;;;;;;30.28;46.69;100382.81;2102760;28;20096;-76
2022/08/03 04:52:11;;;;;;;3.10;1.75;;;;;;;30.35;46.50;100388.69;2102580;28;20043;-76
2022/08/03 04:53:36;;;;;;;2.33;1.35;;;;;;;30.43;46.02;100389.88;2102968;28;20063;-77
2022/08/03 04:54:58;;;;;;;8.05;2.15;;;;;;;30.59;45.54;100394.25;2102300;28;20127;-77
2022/08/03 04:56:21;;;;;;;4.90;1.88;;;;;;;30.72;45.31;100395.09;2102165;28;20080;-76
2022/08/03 04:57:42;;;;;;;4.60;1.90;;;;;;;30.84;44.93;100396.91;2110854;28;20077;-76
2022/08/03 04:59:05;;;;;;;3.15;1.58;;;;;;;30.96;44.59;100395.13;2098267;28;20044;-76
2022/08/03 05:00:28;;;;;;;3.83;2.00;;;;;;;31.08;44.56;100399.69;2106021;28;20492;-77
2022/08/03 05:01:50;;;;;;;3.67;1.42;;;;;;;31.21;44.28;100405.94;2107293;28;20136;-77
2022/08/03 05:03:12;;;;;;;4.13;1.85;;;;;;;31.38;44.27;100396.44;2093343;28;20051;-77
2022/08/03 05:04:36;;;;;;;6.20;2.35;;;;;;;31.51;43.67;100403.59;2099658;28;20101;-76
2022/08/03 05:05:59;;;;;;;4.90;1.92;;;;;;;31.70;43.50;100397.63;2102002;28;20048;-77
2022/08/03 05:07:22;;;;;;;5.90;1.98;;;;;;;31.90;43.16;100402.38;2102624;28;20461;-76
2022/08/03 05:08:45;;;;;;;3.90;1.88;;;;;;;32.09;42.56;100414.59;2094077;28;20507;-76
2022/08/03 05:10:08;;;;;;;6.40;2.03;;;;;;;32.32;42.23;100403.56;2099202;28;20051;-76
2022/08/03 05:11:31;;;;;;;4.07;1.95;;;;;;;32.49;41.93;100406.81;2102638;28;20110;-77
2022/08/03 05:12:53;;;;;;;5.45;1.63;;;;;;;32.56;41.68;100411.63;2099700;28;20392;-76
2022/08/03 05:14:16;;;;;;;2.80;1.50;;;;;;;32.76;41.30;100410.91;2097640;28;20036;-77
2022/08/03 05:15:38;;;;;;;4.78;1.73;;;;;;;32.95;40.75;100410.25;2101644;28;20609;-76
2022/08/03 05:17:00;;;;;;;4.75;1.95;;;;;;;33.05;40.38;100405.75;2110961;28;20492;-77
2022/08/03 05:18:22;;;;;;;5.63;1.70;;;;;;;33.12;40.30;100398.78;2096597;28;20645;-77
2022/08/03 05:19:45;;;;;;;6.75;1.80;;;;;;;33.21;39.97;100403.50;2093509;28;20072;-77
2022/08/03 05:21:09;;;;;;;4.20;1.70;;;;;;;33.35;39.62;100398.72;2102041;28;20934;-77
2022/08/03 05:22:31;;;;;;;4.75;1.63;;;;;;;33.40;39.48;100412.91;2110781;28;20597;-76
2022/08/03 05:23:54;;;;;;;3.97;1.80;;;;;;;33.25;39.63;100411.47;2104839;28;20059;-76
2022/08/03 05:25:17;;;;;;;5.65;1.67;;;;;;;33.38;39.54;100412.16;2093992;28;20458;-77
2022/08/03 05:26:38;;;;;;;4.53;1.70;;;;;;;33.65;39.18;100412.53;2093981;28;20040;-76
2022/08/03 05:28:01;;;;;;;6.20;1.52;;;;;;;33.82;38.82;100417.44;2101867;28;20103;-77
2022/08/03 05:29:22;;;;;;;3.40;1.67;;;;;;;33.99;38.49;100413.25;2094120;28;20143;-77
2022/08/03 05:30:45;;;;;;;3.20;1.40;;;;;;;34.24;37.98;100417.47;2098611;28;20032;-76
2022/08/03 05:32:07;;;;;;;3.80;1.58;;;;;;;34.31;37.71;100418.66;2095919;28;20760;-76
2022/08/03 05:33:29;;;;;;;6.32;1.73;;;;;;;34.43;37.56;100420.28;2110617;28;20047;-77
2022/08/03 05:34:51;;;;;;;3.58;1.60;;;;;;;34.52;37.24;100415.88;2111206;28;20062;-76
2022/08/03 05:36:15;;;;;;;3.95;1.63;;;;;;;34.48;37.26;100420.75;2104667;28;20530;-77
2022/08/03 05:37:36;;;;;;;8.43;2.58;;;;;;;34.66;36.91;100427.31;2101981;28;20507;-77
2022/08/03 05:38:59;;;;;;;5.63;1.88;;;;;;;34.90;36.66;100431.63;2101906;28;20052;-76
2022/08/03 05:40:20;;;;;;;7.53;1.75;;;;;;;34.98;36.50;100424.44;2093985;28;20146;-76
2022/08/03 05:41:43;;;;;;;5.55;1.70;;;;;;;35.14;36.35;100429.34;2099511;28;20044;-77
2022/08/03 05:43:04;;;;;;;5.53;1.65;;;;;;;35.21;36.00;100425.06;2102215;28;20403;-77
2022/08/03 05:44:27;;;;;;;4.60;1.80;;;;;;;35.17;36.00;100432.69;2101639;28;20036;-76
2022/08/03 05:45:49;;;;;;;3.90;1.45;;;;;;;35.13;35.77;100424.88;2092681;28;20052;-76
2022/08/03 05:47:12;;;;;;;6.40;1.90;;;;;;;35.04;36.04;100433.97;2099385;28;20082;-77
2022/08/03 05:48:35;;;;;;;4.78;1.70;;;;;;;35.15;36.13;100429.22;2103963;28;20044;-77
2022/08/03 05:49:57;;;;;;;9.80;2.00;;;;;;;35.39;35.81;100433.47;2097709;28;20511;-77
2022/08/03 05:51:21;;;;;;;9.55;1.55;;;;;;;35.64;35.48;100427.41;2102417;28;20059;-77
2022/08/03 05:52:43;;;;;;;5.60;1.70;;;;;;;35.83;35.10;100421.06;2102186;28;20074;-77
2022/08/03 05:54:06;;;;;;;3.63;1.58;;;;;;;36.01;34.89;100434.94;2101988;28;20496;-76
2022/08/03 05:55:28;;;;;;;5.18;1.30;;;;;;;36.10;34.43;100434.91;2104104;28;20142;-76
2022/08/03 05:56:50;;;;;;;6.10;1.70;;;;;;;36.10;34.60;100434.06;2102254;28;20044;-77
2022/08/03 05:58:13;;;;;;;6.57;1.58;;;;;;;36.20;34.58;100430.28;2093305;28;20484;-76
2022/08/03 05:59:38;;;;;;;4.90;1.42;;;;;;;36.41;34.24;100437.47;2099450;28;20048;-76
2022/08/03 06:01:01;;;;;;;5.10;1.60;;;;;;;36.55;34.02;100435.09;2102113;28;20490;-77
2022/08/03 06:02:22;;;;;;;4.22;1.63;;;;;;;36.67;33.85;100438.53;2093287;28;20068;-77
2022/08/03 06:03:45;;;;;;;3.13;1.42;;;;;;;36.72;33.52;100433.44;2098674;28;20051;-77
2022/08/03 06:05:08;;;;;;;3.83;1.38;;;;;;;36.61;33.25;100428.13;2109563;28;20269;-77
2022/08/03 06:06:32;;;;;;;4.57;1.92;;;;;;;36.45;33.34;100438.88;2101678;28;20060;-77
2022/08/03 06:07:54;;;;;;;2.88;1.25;;;;;;;36.38;33.52;100426.75;2093812;28;20072;-78
2022/08/03 06:09:17;;;;;;;5.00;1.50;;;;;;;36.28;33.62;100430.41;2101668;28;20497;-77
2022/08/03 06:10:39;;;;;;;4.05;1.60;;;;;;;36.31;33.44;100441.09;2101807;28;20136;-77
2022/08/03 06:12:00;;;;;;;4.60;1.50;;;;;;;36.36;33.35;100434.31;2102202;28;20127;-77
2022/08/03 06:13:23;;;;;;;5.93;1.77;;;;;;;36.45;33.29;100438.88;2101824;28;20531;-77
2022/08/03 06:14:44;;;;;;;4.68;1.70;;;;;;;36.41;33.25;100431.97;2093648;28;20095;-77
2022/08/03 06:16:07;;;;;;;2.42;1.02;;;;;;;36.21;33.49;100433.91;2098722;28;20136;-77
2022/08/03 06:17:28;;;;;;;3.75;1.50;;;;;;;36.12;33.84;100437.50;2093729;28;20036;-77
2022/08/03 06:18:51;;;;;;;3.15;1.55;;;;;;;36.09;33.83;100435.94;2097393;28;20055;-77
2022/08/03 06:20:14;;;;;;;3.70;1.33;;;;;;;36.07;33.73;100429.69;2103685;28;20048;-77
2022/08/03 06:21:38;;;;;;;4.60;1.83;;;;;;;35.95;33.73;100431.75;2109275;28;20651;-78
2022/08/03 06:23:01;;;;;;;3.45;1.30;;;;;;;35.93;33.80;100442.03;2104417;28;20147;-78
2022/08/03 06:24:24;;;;;;;4.22;1.50;;;;;;;35.93;33.66;100441.16;2101742;28;20048;-78
2022/08/03 06:25:47;;;;;;;2.47;1.23;;;;;;;35.95;33.84;100430.88;2101035;28;20162;-79
2022/08/03 06:27:11;;;;;;;3.38;1.33;;;;;;;36.01;33.66;100433.03;2096326;28;20057;-78
2022/08/03 06:28:33;;;;;;;6.88;1.80;;;;;;;36.19;33.67;100438.69;2107568;28;20152;-77
2022/08/03 06:29:56;;;;;;;6.00;1.75;;;;;;;36.30;33.44;100435.78;2103346;28;20067;-78
2022/08/03 06:31:17;;;;;;;4.53;1.40;;;;;;;36.32;33.31;100441.97;2114040;28;20060;-79
2022/08/03 06:32:40;;;;;;;5.65;1.75;;;;;;;36.38;33.17;100435.00;2098374;28;20040;-78
2022/08/03 06:34:04;;;;;;;4.85;1.27;;;;;;;36.43;33.04;100439.03;2102064;28;20122;-79
2022/08/03 06:35:27;;;;;;;3.17;1.50;;;;;;;36.45;32.93;100441.63;2108117;28;20400;-78
2022/08/03 06:36:50;;;;;;;2.83;1.25;;;;;;;36.55;32.74;100436.97;2110418;28;20039;-78
2022/08/03 06:38:13;;;;;;;5.57;1.30;;;;;;;36.65;32.63;100437.81;2110155;28;20102;-79
2022/08/03 06:39:35;;;;;;;3.50;1.25;;;;;;;36.59;32.61;100431.00;2095471;28;20047;-79